Time;durP1;ratioP1;P1;durP2;ratioP2;P2;SDS_P1;SDS_P2;PMS_P1;PMS_P2;Temp;Humidity;BMP_temperature;BMP_pressure;BME280_temperature;BME280_humidity;BME280_pressure;Samples;Min_cycle;Max_cycle;Signal;HPM_P1;HPM_P2
2022/03/01 00:03:13;;;;;;;99.80;33.53;;;;;;;-1.06;59.12;102637.53;712949;1174;115966;-73
2022/03/01 00:18:15;;;;;;;134.95;37.55;;;;;;;-1.07;59.95;102622.08;713001;1174;115764;-74
2022/03/01 00:33:17;;;;;;;117.03;34.67;;;;;;;-1.18;59.79;102629.83;713128;1174;115816;-74
2022/03/01 00:48:20;;;;;;;105.93;33.13;;;;;;;-1.45;59.51;102615.25;713079;1173;115957;-73
2022/03/01 01:03:22;;;;;;;142.30;45.00;;;;;;;-1.51;61.23;102610.97;712864;1174;114977;-73
2022/03/01 01:18:25;;;;;;;156.07;40.80;;;;;;;-1.46;61.01;102611.83;713018;1173;116248;-73
2022/03/01 01:33:28;;;;;;;92.53;30.25;;;;;;;-1.66;61.05;102591.25;713285;1174;115990;-73
2022/03/01 01:48:30;;;;;;;100.60;32.13;;;;;;;-1.73;61.54;102589.52;714006;1174;114415;-74
2022/03/01 02:03:32;;;;;;;111.13;36.23;;;;;;;-1.72;62.02;102586.09;713120;1173;115227;-73
2022/03/01 02:18:34;;;;;;;105.50;37.30;;;;;;;-1.80;62.31;102567.22;713006;1174;115829;-73
2022/03/01 02:33:36;;;;;;;110.83;36.43;;;;;;;-1.94;62.67;102568.08;713039;1174;115320;-74
2022/03/01 02:48:38;;;;;;;74.45;26.13;;;;;;;-2.20;62.43;102571.46;713060;1174;115992;-74
2022/03/01 03:03:40;;;;;;;172.05;43.33;;;;;;;-2.24;63.04;102566.33;713105;1174;115626;-74
2022/03/01 03:18:43;;;;;;;78.53;27.48;;;;;;;-2.24;63.33;102556.89;712958;1174;114663;-73
2022/03/01 03:33:45;;;;;;;123.93;36.03;;;;;;;-2.35;63.25;102567.16;713240;1174;115474;-73
2022/03/01 03:48:48;;;;;;;211.63;62.80;;;;;;;-2.50;63.15;102549.11;713625;1173;116120;-73
2022/03/01 04:03:52;;;;;;;133.33;42.23;;;;;;;-2.46;63.23;102532.84;713251;1174;116590;-74
2022/03/01 04:18:55;;;;;;;172.98;54.93;;;;;;;-2.65;62.92;102524.23;713868;1174;114578;-79
2022/03/01 04:33:57;;;;;;;136.87;44.57;;;;;;;-2.66;63.33;102517.38;713856;1174;114598;-74
2022/03/01 04:49:00;;;;;;;147.03;48.70;;;;;;;-2.85;63.46;102496.76;714015;1174;114673;-73
2022/03/01 05:04:03;;;;;;;161.05;49.15;;;;;;;-2.82;63.92;102502.74;713033;1174;115394;-74
2022/03/01 05:19:07;;;;;;;136.97;46.00;;;;;;;-2.80;63.51;102509.61;713331;1174;115690;-72
2022/03/01 05:34:10;;;;;;;116.03;33.75;;;;;;;-2.96;63.15;102513.83;713120;1174;115250;-72
2022/03/01 05:49:12;;;;;;;146.10;43.88;;;;;;;-2.90;63.54;102511.30;713268;1174;115316;-73
2022/03/01 06:04:15;;;;;;;206.35;64.95;;;;;;;-2.79;63.71;102510.48;713057;1173;116151;-75
2022/03/01 06:19:18;;;;;;;132.60;40.90;;;;;;;-2.81;63.45;102517.31;713140;1174;115961;-75
2022/03/01 06:34:20;;;;;;;225.27;76.57;;;;;;;-2.35;64.25;102522.57;713024;1174;115895;-74
2022/03/01 06:49:22;;;;;;;370.03;126.47;;;;;;;-1.07;65.19;102516.44;713366;1174;116123;-75
2022/03/01 07:04:24;;;;;;;250.88;88.08;;;;;;;0.04;65.15;102508.05;713156;1174;116367;-74
2022/03/01 07:19:26;;;;;;;234.75;85.33;;;;;;;1.24;65.22;102511.06;713188;1174;115741;-74
2022/03/01 07:34:29;;;;;;;205.27;76.60;;;;;;;2.55;64.44;102505.51;713162;1174;115713;-75
2022/03/01 07:49:31;;;;;;;465.15;161.15;;;;;;;3.81;63.07;102499.36;713618;1174;115676;-75
2022/03/01 08:04:33;;;;;;;337.30;115.25;;;;;;;5.02;62.04;102498.73;713271;1173;115274;-75
2022/03/01 08:19:37;;;;;;;195.98;74.68;;;;;;;5.91;60.91;102489.91;716181;1173;114525;-81
2022/03/01 08:34:39;;;;;;;179.53;72.33;;;;;;;7.03;58.10;102496.43;715077;1174;114331;-79
2022/03/01 08:49:41;;;;;;;157.25;60.68;;;;;;;8.24;56.74;102480.22;715295;1174;114297;-80
2022/03/01 09:04:44;;;;;;;86.38;36.45;;;;;;;8.63;55.11;102476.80;714721;1174;114800;-80
2022/03/01 09:19:47;;;;;;;93.40;38.28;;;;;;;9.52;53.13;102467.47;714436;1174;115734;-74
2022/03/01 09:34:50;;;;;;;56.10;25.50;;;;;;;9.90;52.05;102457.69;713735;1174;114743;-75
2022/03/01 09:49:59;;;;;;;343.53;114.13;;;;;;;11.17;49.92;102423.89;714584;1174;114156;-80
2022/03/01 10:05:04;;;;;;;49.28;22.18;;;;;;;11.83;47.93;102423.52;714196;1173;114720;-80
2022/03/01 10:20:15;;;;;;;21.35;10.90;;;;;;;12.11;46.19;102415.78;713977;1174;115683;-75
2022/03/01 10:35:18;;;;;;;28.65;14.50;;;;;;;11.92;44.66;102401.09;713599;1174;115623;-75
2022/03/01 10:50:22;;;;;;;14.88;7.55;;;;;;;12.79;44.47;102374.72;713530;1174;115868;-74
2022/03/01 11:05:29;;;;;;;32.80;14.77;;;;;;;13.22;42.96;102350.81;714134;1173;114271;-75
2022/03/01 11:20:55;;;;;;;16.43;9.50;;;;;;;12.99;41.57;102328.64;714070;1174;116074;-76
2022/03/01 11:36:01;;;;;;;23.88;12.70;;;;;;;12.75;41.44;102296.86;716550;1174;115517;-76
2022/03/01 11:51:06;;;;;;;16.48;9.33;;;;;;;13.38;41.35;102302.38;713935;1174;116093;-75
2022/03/01 12:06:09;;;;;;;107.73;42.10;;;;;;;13.06;40.34;102277.21;714078;1174;115450;-76
2022/03/01 12:21:13;;;;;;;16.53;8.53;;;;;;;13.44;40.34;102250.07;713861;1174;115824;-76
2022/03/01 12:36:37;;;;;;;14.48;7.53;;;;;;;13.79;39.72;102233.59;714201;1167;114193;-74
2022/03/01 12:51:41;;;;;;;14.30;7.33;;;;;;;14.28;39.39;102205.45;713722;1173;116000;-75
2022/03/01 13:06:45;;;;;;;42.30;12.98;;;;;;;14.58;38.10;102184.80;713590;1174;115715;-75
2022/03/01 13:21:56;;;;;;;15.90;7.70;;;;;;;15.79;38.33;102163.97;713707;1173;114980;-78
2022/03/01 13:37:00;;;;;;;17.10;8.90;;;;;;;16.62;38.10;102147.55;714596;1174;115050;-74
2022/03/01 13:52:24;;;;;;;49.98;15.03;;;;;;;25.70;35.78;102113.16;713791;1174;115522;-74
2022/03/01 14:07:28;;;;;;;25.33;11.90;;;;;;;28.09;33.44;102106.71;713554;1174;115265;-73
2022/03/01 14:22:30;;;;;;;38.13;15.38;;;;;;;28.91;31.93;102090.13;713408;1174;115643;-74
2022/03/01 14:37:33;;;;;;;16.77;10.77;;;;;;;29.05;31.68;102076.34;713550;1174;115351;-73
2022/03/01 14:52:36;;;;;;;20.15;10.75;;;;;;;28.38;31.16;102071.16;714052;1174;115638;-74
2022/03/01 15:07:42;;;;;;;47.28;18.78;;;;;;;26.05;29.40;102032.66;713728;1174;115139;-73
2022/03/01 15:22:46;;;;;;;57.95;30.25;;;;;;;17.61;31.80;102014.34;713461;1174;115156;-73
2022/03/01 15:37:50;;;;;;;58.75;26.48;;;;;;;16.55;34.62;102012.13;713777;1174;115083;-73
2022/03/01 15:52:53;;;;;;;140.40;58.83;;;;;;;19.15;33.48;102008.88;713888;1174;115902;-73
2022/03/01 16:07:56;;;;;;;188.68;79.53;;;;;;;15.41;33.87;102003.09;714164;1177;114753;-76
2022/03/01 16:22:58;;;;;;;118.38;40.98;;;;;;;11.01;36.46;102004.55;713690;1174;115123;-75
2022/03/01 16:38:01;;;;;;;144.03;49.88;;;;;;;8.34;39.07;101996.88;713674;1174;114460;-75
2022/03/01 16:53:05;;;;;;;154.03;53.60;;;;;;;7.08;40.97;101996.00;713601;1174;114875;-76
2022/03/01 17:08:09;;;;;;;68.65;36.28;;;;;;;6.33;41.56;101993.20;713897;1174;115192;-74
2022/03/01 17:23:11;;;;;;;100.50;36.95;;;;;;;5.67;42.61;102001.97;714373;1174;115931;-73
2022/03/01 17:38:14;;;;;;;160.80;51.63;;;;;;;5.13;44.79;101985.84;713950;1174;115862;-72
2022/03/01 17:53:17;;;;;;;143.33;52.28;;;;;;;4.75;46.32;101990.71;714637;1174;115046;-76
2022/03/01 18:08:20;;;;;;;316.95;107.40;;;;;;;4.21;45.75;101988.27;714470;1174;115159;-77
2022/03/01 18:23:24;;;;;;;411.90;147.67;;;;;;;4.02;47.52;101995.82;715489;1174;115783;-72
2022/03/01 18:38:26;;;;;;;439.15;145.88;;;;;;;3.54;48.77;102005.14;713933;1174;116074;-73
2022/03/01 18:53:29;;;;;;;495.65;173.30;;;;;;;3.26;48.64;101999.94;714494;1174;115273;-73
2022/03/01 19:08:31;;;;;;;704.05;269.70;;;;;;;2.95;49.65;101990.47;713680;1173;115657;-72
2022/03/01 19:23:34;;;;;;;1656.13;583.65;;;;;;;2.70;51.03;101978.20;714109;1174;115890;-72
2022/03/01 19:38:37;;;;;;;500.53;189.38;;;;;;;2.44;51.06;101946.11;714158;1174;115372;-71
2022/03/01 19:53:39;;;;;;;501.58;179.75;;;;;;;2.15;51.54;101945.14;714400;1174;115719;-72
2022/03/01 20:08:43;;;;;;;510.40;184.78;;;;;;;1.99;52.44;101942.11;714311;1173;115115;-71
2022/03/01 20:23:47;;;;;;;268.20;85.67;;;;;;;1.68;53.00;101923.03;714427;1174;115385;-72
2022/03/01 20:38:49;;;;;;;396.43;125.47;;;;;;;1.51;53.52;101910.54;716872;1174;115600;-72
2022/03/01 20:53:52;;;;;;;390.78;127.70;;;;;;;1.23;54.59;101908.58;713652;1174;115771;-73
2022/03/01 21:08:55;;;;;;;508.68;171.23;;;;;;;1.09;55.14;101901.98;714191;1174;114840;-73
2022/03/01 21:23:57;;;;;;;753.90;257.78;;;;;;;0.88;55.81;101897.30;713872;1174;115407;-73
2022/03/01 21:39:00;;;;;;;548.73;180.30;;;;;;;0.79;55.86;101891.46;714606;1167;115849;-72
2022/03/01 21:54:03;;;;;;;450.28;144.18;;;;;;;0.61;56.13;101878.94;714097;1174;114657;-72
2022/03/01 22:09:05;;;;;;;540.30;172.13;;;;;;;0.40;56.90;101870.73;713520;1174;116432;-73
2022/03/01 22:24:08;;;;;;;731.73;241.70;;;;;;;0.35;57.25;101875.14;713518;1174;115941;-71
2022/03/01 22:39:10;;;;;;;176.33;58.27;;;;;;;0.06;57.65;101884.29;713535;1174;114897;-72
2022/03/01 22:54:13;;;;;;;212.28;69.43;;;;;;;-0.13;57.04;101864.86;713649;1174;116032;-71
2022/03/01 23:09:15;;;;;;;516.75;166.68;;;;;;;-0.39;57.86;101871.34;713585;1173;116131;-73
2022/03/01 23:24:18;;;;;;;323.50;105.00;;;;;;;-0.59;58.20;101859.63;713472;1174;115705;-73
2022/03/01 23:39:19;;;;;;;335.45;103.45;;;;;;;-0.57;59.00;101877.64;713558;1174;115835;-73
2022/03/01 23:54:27;;;;;;;285.35;94.08;;;;;;;-0.65;59.46;101858.88;713592;1174;116287;-73
